Time;durP1;ratioP1;P1;durP2;ratioP2;P2;SDS_P1;SDS_P2;PMS_P1;PMS_P2;Temp;Humidity;BMP_temperature;BMP_pressure;BME280_temperature;BME280_humidity;BME280_pressure;Samples;Min_cycle;Max_cycle;Signal;HPM_P1;HPM_P2
2023/03/13 00:00:09;0.00;0.00;0.62;0.00;0.00;0.62;3.50;2.20;;;20.50;21.30;;;;;;2267293;61;20430;-48
2023/03/13 00:02:54;0.00;0.00;0.62;0.00;0.00;0.62;4.10;2.17;;;20.50;21.30;;;;;;2268236;61;20460;-52
2023/03/13 00:05:38;0.00;0.00;0.62;0.00;0.00;0.62;4.27;2.67;;;20.50;21.30;;;;;;2268439;61;20514;-53
2023/03/13 00:08:24;0.00;0.00;0.62;0.00;0.00;0.62;2.57;2.07;;;20.50;21.30;;;;;;2267401;61;20405;-54
2023/03/13 00:11:11;0.00;0.00;0.62;0.00;0.00;0.62;3.20;2.10;;;20.50;21.30;;;;;;2267924;61;20409;-53
2023/03/13 00:14:00;0.00;0.00;0.62;0.00;0.00;0.62;4.20;2.30;;;20.50;21.30;;;;;;2267981;61;20383;-53
2023/03/13 00:16:45;0.00;0.00;0.62;0.00;0.00;0.62;2.80;2.10;;;20.50;21.30;;;;;;2267617;61;20368;-55
2023/03/13 00:19:30;0.00;0.00;0.62;0.00;0.00;0.62;2.87;2.07;;;20.50;21.30;;;;;;2267569;61;20452;-55
2023/03/13 00:22:15;0.00;0.00;0.62;0.00;0.00;0.62;3.60;2.07;;;20.50;21.30;;;;;;2267657;61;21064;-54
2023/03/13 00:24:59;0.00;0.00;0.62;0.00;0.00;0.62;2.70;1.90;;;20.50;21.30;;;;;;2267838;61;20426;-64
2023/03/13 00:27:44;0.00;0.00;0.62;0.00;0.00;0.62;3.70;2.40;;;20.50;21.30;;;;;;2268726;61;20408;-56
2023/03/13 00:30:30;0.00;0.00;0.62;0.00;0.00;0.62;5.10;2.13;;;20.50;21.30;;;;;;2267555;61;20359;-55
2023/03/13 00:33:15;0.00;0.00;0.62;0.00;0.00;0.62;3.40;1.93;;;20.50;21.30;;;;;;2268299;61;20420;-57
2023/03/13 00:36:00;0.00;0.00;0.62;0.00;0.00;0.62;3.10;2.40;;;20.50;21.30;;;;;;2268180;61;20394;-56
2023/03/13 00:38:45;0.00;0.00;0.62;0.00;0.00;0.62;2.30;1.37;;;20.50;21.30;;;;;;2268148;61;20485;-55
2023/03/13 00:41:32;0.00;0.00;0.62;0.00;0.00;0.62;4.90;2.70;;;20.50;21.30;;;;;;2268813;61;20358;-51
2023/03/13 00:44:17;0.00;0.00;0.62;0.00;0.00;0.62;3.73;2.20;;;20.50;21.30;;;;;;2268170;61;20382;-55
2023/03/13 00:47:04;0.00;0.00;0.62;0.00;0.00;0.62;3.20;2.00;;;20.50;21.30;;;;;;2268494;61;20811;-55
2023/03/13 00:49:49;0.00;0.00;0.62;0.00;0.00;0.62;4.27;2.23;;;20.50;21.30;;;;;;2268033;61;20393;-53
2023/03/13 00:52:33;0.00;0.00;0.62;0.00;0.00;0.62;4.20;2.27;;;20.50;21.30;;;;;;2267762;61;20363;-56
2023/03/13 00:55:18;0.00;0.00;0.62;0.00;0.00;0.62;2.30;1.63;;;20.50;21.30;;;;;;2268507;61;20852;-57
2023/03/13 00:58:03;0.00;0.00;0.62;0.00;0.00;0.62;3.03;2.00;;;20.50;21.30;;;;;;2267938;61;20805;-55
2023/03/13 01:00:47;0.00;0.00;0.62;0.00;0.00;0.62;2.30;1.80;;;20.50;21.30;;;;;;2267364;61;20363;-55
2023/03/13 01:03:35;0.00;0.00;0.62;0.00;0.00;0.62;3.63;2.03;;;20.50;21.30;;;;;;2267845;61;20371;-51
2023/03/13 01:06:22;0.00;0.00;0.62;0.00;0.00;0.62;2.53;1.50;;;20.50;21.30;;;;;;2268325;61;20831;-54
2023/03/13 01:09:08;0.00;0.00;0.62;0.00;0.00;0.62;2.40;1.57;;;20.50;21.30;;;;;;2267793;61;20355;-52
2023/03/13 01:11:54;0.00;0.00;0.62;0.00;0.00;0.62;2.67;1.80;;;20.50;21.80;;;;;;2268105;61;20362;-57
2023/03/13 01:14:38;0.00;0.00;0.62;0.00;0.00;0.62;2.60;1.40;;;20.50;21.30;;;;;;2267874;61;20825;-53
2023/03/13 01:17:23;0.00;0.00;0.62;0.00;0.00;0.62;2.27;1.70;;;20.50;21.30;;;;;;2268720;61;20913;-55
2023/03/13 01:20:11;0.00;0.00;0.62;0.00;0.00;0.62;3.30;2.10;;;20.60;21.40;;;;;;2267988;61;20471;-53
2023/03/13 01:22:56;0.00;0.00;0.62;0.00;0.00;0.62;2.57;1.80;;;20.50;21.30;;;;;;2268065;61;20367;-51
2023/03/13 01:25:40;0.00;0.00;0.62;0.00;0.00;0.62;2.67;1.33;;;20.50;21.30;;;;;;2267694;61;20379;-55
2023/03/13 01:28:26;0.00;0.00;0.62;0.00;0.00;0.62;2.03;1.30;;;20.50;21.30;;;;;;2267754;61;20370;-54
2023/03/13 01:31:13;0.00;0.00;0.62;0.00;0.00;0.62;3.50;1.70;;;20.60;21.40;;;;;;2267306;61;20438;-53
2023/03/13 01:34:00;0.00;0.00;0.62;0.00;0.00;0.62;2.70;1.60;;;20.60;21.40;;;;;;2267787;61;20819;-55
2023/03/13 01:36:49;0.00;0.00;0.62;0.00;0.00;0.62;2.57;1.80;;;20.60;21.40;;;;;;2268182;61;20360;-56
2023/03/13 01:39:34;0.00;0.00;0.62;0.00;0.00;0.62;3.00;1.90;;;20.50;21.30;;;;;;2267544;61;20989;-54
2023/03/13 01:42:19;0.00;0.00;0.62;0.00;0.00;0.62;3.83;1.60;;;20.60;21.40;;;;;;2268428;61;20405;-55
2023/03/13 01:45:05;0.00;0.00;0.62;0.00;0.00;0.62;2.80;1.43;;;20.50;21.40;;;;;;2267920;61;20508;-54
2023/03/13 01:47:51;0.00;0.00;0.62;0.00;0.00;0.62;2.20;1.20;;;20.60;21.40;;;;;;2268025;61;20358;-51
2023/03/13 01:50:43;0.00;0.00;0.62;0.00;0.00;0.62;2.03;1.30;;;20.50;21.30;;;;;;2267511;61;20946;-57
2023/03/13 01:53:42;0.00;0.00;0.62;0.00;0.00;0.62;2.67;1.47;;;20.60;21.40;;;;;;2267680;61;20355;-53
2023/03/13 01:56:35;0.00;0.00;0.62;0.00;0.00;0.62;2.00;1.30;;;20.50;21.40;;;;;;2268563;61;20904;-52
2023/03/13 01:59:24;0.00;0.00;0.62;0.00;0.00;0.62;2.90;1.80;;;20.60;21.40;;;;;;2267166;61;20391;-55
2023/03/13 02:02:09;0.00;0.00;0.62;0.00;0.00;0.62;3.60;1.60;;;20.60;21.40;;;;;;2268181;61;20769;-52
2023/03/13 02:04:59;0.00;0.00;0.62;0.00;0.00;0.62;2.80;1.60;;;20.60;21.40;;;;;;2267967;61;20991;-57
2023/03/13 02:07:49;0.00;0.00;0.62;0.00;0.00;0.62;2.63;1.37;;;20.60;21.50;;;;;;2268428;61;20362;-49
2023/03/13 02:10:42;0.00;0.00;0.62;0.00;0.00;0.62;1.70;1.10;;;20.60;21.40;;;;;;2267593;61;20389;-49
2023/03/13 02:13:28;0.00;0.00;0.62;0.00;0.00;0.62;2.53;1.60;;;20.60;21.40;;;;;;2267660;61;20368;-49
2023/03/13 02:16:13;0.00;0.00;0.62;0.00;0.00;0.62;1.80;1.33;;;20.60;21.40;;;;;;2268177;61;20413;-51
2023/03/13 02:18:59;0.00;0.00;0.62;0.00;0.00;0.62;2.00;1.33;;;20.60;21.50;;;;;;2268079;61;20387;-55
2023/03/13 02:21:52;0.00;0.00;0.62;0.00;0.00;0.62;1.80;1.07;;;20.60;21.40;;;;;;2267623;61;20840;-58
2023/03/13 02:24:46;0.00;0.00;0.62;0.00;0.00;0.62;1.90;1.10;;;20.60;21.50;;;;;;2267816;61;20797;-55
2023/03/13 02:27:32;0.00;0.00;0.62;0.00;0.00;0.62;1.93;1.20;;;20.60;21.40;;;;;;2268032;61;20949;-53
2023/03/13 02:30:17;0.00;0.00;0.62;0.00;0.00;0.62;2.80;1.50;;;20.50;21.40;;;;;;2267604;61;20913;-58
2023/03/13 02:33:03;0.00;0.00;0.62;0.00;0.00;0.62;1.80;1.20;;;20.60;21.40;;;;;;2268393;61;20398;-52
2023/03/13 02:35:48;0.00;0.00;0.62;0.00;0.00;0.62;4.00;1.50;;;20.60;21.50;;;;;;2267502;61;20390;-51
2023/03/13 02:38:42;0.00;0.00;0.62;0.00;0.00;0.62;2.97;1.90;;;20.60;21.50;;;;;;2267614;61;20939;-53
2023/03/13 02:41:28;0.00;0.00;0.62;0.00;0.00;0.62;1.73;1.13;;;20.60;21.40;;;;;;2268063;61;20413;-52
2023/03/13 02:44:16;0.00;0.00;0.62;0.00;0.00;0.62;2.47;1.80;;;20.60;21.50;;;;;;2267285;61;20823;-52
2023/03/13 02:47:01;0.00;0.00;0.62;0.00;0.00;0.62;3.77;1.77;;;20.60;21.50;;;;;;2268373;61;20922;-49
2023/03/13 02:49:47;0.00;0.00;0.62;0.00;0.00;0.62;2.43;1.23;;;20.60;21.40;;;;;;2267489;61;20892;-51
2023/03/13 02:52:37;0.00;0.00;0.62;0.00;0.00;0.62;1.90;1.30;;;20.60;21.50;;;;;;2267716;61;20378;-53
2023/03/13 02:55:27;0.00;0.00;0.62;0.00;0.00;0.62;2.50;1.43;;;20.60;22.00;;;;;;2267767;61;20376;-53
2023/03/13 02:58:12;0.00;0.00;0.62;0.00;0.00;0.62;1.93;1.30;;;20.60;21.50;;;;;;2267671;61;20367;-53
2023/03/13 03:01:06;0.00;0.00;0.62;0.00;0.00;0.62;2.93;1.53;;;20.60;21.50;;;;;;2267748;61;20355;-51
2023/03/13 03:03:51;0.00;0.00;0.62;0.00;0.00;0.62;1.93;1.10;;;20.60;21.50;;;;;;2267750;61;21010;-51
2023/03/13 03:06:36;0.00;0.00;0.62;0.00;0.00;0.62;2.00;1.20;;;20.60;21.40;;;;;;2267693;61;20363;-59
2023/03/13 03:09:23;0.00;0.00;0.62;0.00;0.00;0.62;1.90;1.17;;;20.60;21.50;;;;;;2267373;61;20497;-52
2023/03/13 03:12:12;0.00;0.00;0.62;0.00;0.00;0.62;2.43;1.43;;;20.60;22.00;;;;;;2267561;61;20370;-53
2023/03/13 03:14:57;0.00;0.00;0.62;0.00;0.00;0.62;1.63;1.00;;;20.60;21.50;;;;;;2267461;61;20467;-51
2023/03/13 03:17:44;0.00;0.00;0.62;0.00;0.00;0.62;1.80;1.17;;;20.60;21.50;;;;;;2267772;61;20391;-53
2023/03/13 03:20:29;0.00;0.00;0.62;0.00;0.00;0.62;1.73;1.20;;;20.60;21.50;;;;;;2267104;61;20409;-53
2023/03/13 03:23:14;0.00;0.00;0.62;0.00;0.00;0.62;2.03;1.40;;;20.60;21.50;;;;;;2267426;61;20865;-56
2023/03/13 03:26:00;0.00;0.00;0.62;0.00;0.00;0.62;2.60;1.20;;;20.60;21.40;;;;;;2268266;61;20507;-54
2023/03/13 03:28:45;0.00;0.00;0.62;0.00;0.00;0.62;1.87;1.10;;;20.60;21.50;;;;;;2267731;61;20351;-54
2023/03/13 03:31:32;0.00;0.00;0.62;0.00;0.00;0.62;1.90;1.27;;;20.60;21.40;;;;;;2267760;61;20358;-50
2023/03/13 03:34:18;0.00;0.00;0.62;0.00;0.00;0.62;2.13;1.30;;;20.60;21.50;;;;;;2267412;61;20393;-50
2023/03/13 03:37:04;0.00;0.00;0.62;0.00;0.00;0.62;2.73;1.30;;;20.60;21.50;;;;;;2267442;61;20370;-53
2023/03/13 03:39:48;0.00;0.00;0.62;0.00;0.00;0.62;1.80;1.10;;;20.60;21.50;;;;;;2267673;61;20977;-54
2023/03/13 03:42:33;0.00;0.00;0.62;0.00;0.00;0.62;1.67;1.00;;;20.60;21.50;;;;;;2267429;61;20363;-53
2023/03/13 03:45:18;0.00;0.00;0.62;0.00;0.00;0.62;2.07;0.90;;;20.60;21.40;;;;;;2267395;61;20855;-54
2023/03/13 03:48:03;0.00;0.00;0.62;0.00;0.00;0.62;1.90;1.30;;;20.60;21.50;;;;;;2267772;61;20351;-53
2023/03/13 03:50:49;0.00;0.00;0.62;0.00;0.00;0.62;2.03;1.23;;;20.60;21.50;;;;;;2266566;61;20447;-54
2023/03/13 03:53:35;0.00;0.00;0.62;0.00;0.00;0.62;1.90;1.20;;;20.60;21.50;;;;;;2267571;61;20366;-51
2023/03/13 03:56:20;0.00;0.00;0.62;0.00;0.00;0.62;1.60;1.10;;;20.70;21.50;;;;;;2267241;61;20359;-54
2023/03/13 03:59:12;0.00;0.00;0.62;0.00;0.00;0.62;2.77;1.37;;;20.60;21.50;;;;;;2266971;61;21414;-54
2023/03/13 04:02:01;0.00;0.00;0.62;0.00;0.00;0.62;2.13;1.30;;;20.70;21.60;;;;;;2268218;61;20379;-52
2023/03/13 04:04:47;0.00;0.00;0.62;0.00;0.00;0.62;1.50;0.93;;;20.70;21.50;;;;;;2267746;61;20910;-51
2023/03/13 04:07:44;0.00;0.00;0.62;0.00;0.00;0.62;1.70;1.20;;;20.60;21.50;;;;;;2268495;61;20420;-56
2023/03/13 04:10:29;0.00;0.00;0.62;0.00;0.00;0.62;1.67;1.00;;;20.70;21.50;;;;;;2268013;61;20432;-54
2023/03/13 04:13:15;0.00;0.00;0.62;0.00;0.00;0.62;1.60;1.00;;;20.60;21.50;;;;;;2268136;61;20778;-51
2023/03/13 04:16:06;0.00;0.00;0.62;0.00;0.00;0.62;1.77;1.17;;;20.70;21.50;;;;;;2268417;61;20895;-50
2023/03/13 04:18:52;0.00;0.00;0.62;0.00;0.00;0.62;1.80;0.97;;;20.70;21.60;;;;;;2267623;61;20440;-55
2023/03/13 04:21:38;0.00;0.00;0.62;0.00;0.00;0.62;2.07;1.10;;;20.70;21.60;;;;;;2268117;61;20362;-57
2023/03/13 04:24:31;0.00;0.00;0.62;0.00;0.00;0.62;1.80;0.90;;;20.70;21.50;;;;;;2268163;61;20442;-54
2023/03/13 04:27:16;0.00;0.00;0.62;0.00;0.00;0.62;2.13;1.10;;;20.70;21.60;;;;;;2267910;61;20424;-57
2023/03/13 04:30:04;0.00;0.00;0.62;0.00;0.00;0.62;2.07;1.17;;;20.70;21.60;;;;;;2268009;61;20413;-50
2023/03/13 04:32:55;0.00;0.00;0.62;0.00;0.00;0.62;2.13;1.33;;;20.70;21.50;;;;;;2268414;61;20367;-52
2023/03/13 04:35:59;0.00;0.00;0.62;0.00;0.00;0.62;1.83;1.20;;;20.70;21.60;;;;;;2268046;61;20396;-53
2023/03/13 04:39:07;0.00;0.00;0.62;0.00;0.00;0.62;1.77;0.97;;;20.70;21.60;;;;;;2268230;61;20374;-52
2023/03/13 04:42:11;0.00;0.00;0.62;0.00;0.00;0.62;2.53;1.30;;;20.70;21.60;;;;;;2267802;61;20371;-54
2023/03/13 04:45:11;0.00;0.00;0.62;0.00;0.00;0.62;1.97;1.07;;;20.70;21.60;;;;;;2268637;61;20425;-51
2023/03/13 04:48:17;0.00;0.00;0.62;0.00;0.00;0.62;1.70;1.17;;;20.70;21.60;;;;;;2267604;61;20852;-52
2023/03/13 04:51:24;0.00;0.00;0.62;0.00;0.00;0.62;1.93;1.00;;;20.70;21.60;;;;;;2266760;61;20391;-55
2023/03/13 04:54:29;0.00;0.00;0.62;0.00;0.00;0.62;1.53;0.93;;;20.70;21.60;;;;;;2268598;61;20383;-51
2023/03/13 04:57:25;0.00;0.00;0.62;0.00;0.00;0.62;2.17;1.00;;;20.70;21.60;;;;;;2267782;61;20367;-56
2023/03/13 05:00:22;0.00;0.00;0.62;0.00;0.00;0.62;1.90;1.20;;;20.70;21.60;;;;;;2265107;61;20363;-53
2023/03/13 05:03:22;0.00;0.00;0.62;0.00;0.00;0.62;2.00;1.00;;;20.70;21.60;;;;;;2268236;61;20363;-52
2023/03/13 05:06:24;0.00;0.00;0.62;0.00;0.00;0.62;1.80;1.10;;;20.70;21.60;;;;;;2267860;61;20362;-55
2023/03/13 05:09:35;0.00;0.00;0.62;0.00;0.00;0.62;2.10;1.17;;;20.70;21.60;;;;;;2267646;61;20769;-51
2023/03/13 05:12:41;0.00;0.00;0.62;0.00;0.00;0.62;4.10;1.20;;;20.70;21.60;;;;;;2262989;61;20423;-58
2023/03/13 05:15:34;0.00;0.00;0.62;0.00;0.00;0.62;1.90;1.00;;;20.70;21.60;;;;;;2268024;61;20383;-51
2023/03/13 05:18:42;0.00;0.00;0.62;0.00;0.00;0.62;1.50;0.90;;;20.70;21.60;;;;;;2267074;61;20480;-52
2023/03/13 05:21:48;0.00;0.00;0.62;0.00;0.00;0.62;2.43;1.37;;;20.70;21.60;;;;;;2268635;61;20751;-54
2023/03/13 05:24:52;0.00;0.00;0.62;0.00;0.00;0.62;1.40;0.80;;;20.70;21.60;;;;;;2268291;61;20401;-60
2023/03/13 05:27:54;0.00;0.00;0.62;0.00;0.00;0.62;1.47;1.10;;;20.70;21.60;;;;;;2268226;61;20409;-55
2023/03/13 05:30:58;0.00;0.00;0.62;0.00;0.00;0.62;1.60;0.90;;;20.70;21.60;;;;;;2268296;61;20397;-54
2023/03/13 05:34:12;0.00;0.00;0.62;0.00;0.00;0.62;1.90;0.90;;;20.70;21.70;;;;;;2267711;61;20378;-56
2023/03/13 05:37:16;0.00;0.00;0.62;0.00;0.00;0.62;1.40;0.80;;;20.70;21.70;;;;;;2268214;61;20409;-55
2023/03/13 05:40:30;0.00;0.00;0.62;0.00;0.00;0.62;2.00;0.97;;;20.70;21.60;;;;;;2267085;61;20464;-49
2023/03/13 05:43:45;0.00;0.00;0.62;0.00;0.00;0.62;2.00;1.10;;;20.70;21.60;;;;;;2264600;61;20964;-52
2023/03/13 05:46:48;0.00;0.00;0.62;0.00;0.00;0.62;1.70;1.00;;;20.70;21.70;;;;;;2268072;61;20455;-53
2023/03/13 05:49:45;0.00;0.00;0.62;0.00;0.00;0.62;1.93;1.30;;;20.70;21.70;;;;;;2267267;61;20817;-54
2023/03/13 05:52:48;0.00;0.00;0.62;0.00;0.00;0.62;1.40;0.80;;;20.70;21.60;;;;;;2268356;61;20362;-56
2023/03/13 05:55:50;0.00;0.00;0.62;0.00;0.00;0.62;1.87;0.80;;;20.70;21.70;;;;;;2267727;61;21089;-51
2023/03/13 05:59:00;0.00;0.00;0.62;0.00;0.00;0.62;2.33;1.30;;;20.70;21.70;;;;;;2268170;61;20842;-51
2023/03/13 06:02:10;0.00;0.00;0.62;0.00;0.00;0.62;1.70;0.97;;;20.70;21.70;;;;;;2262946;61;20356;-51
2023/03/13 06:05:00;0.00;0.00;0.62;0.00;0.00;0.62;1.50;0.97;;;20.70;21.60;;;;;;2259979;61;20379;-51
2023/03/13 06:07:45;0.00;0.00;0.62;0.00;0.00;0.62;1.30;0.73;;;20.70;21.70;;;;;;2267896;61;20359;-54
2023/03/13 06:10:31;0.00;0.00;0.62;0.00;0.00;0.62;1.63;1.00;;;20.70;21.70;;;;;;2267733;61;20492;-51
2023/03/13 06:13:17;0.00;0.00;0.62;0.00;0.00;0.62;2.47;1.00;;;20.70;21.70;;;;;;2267858;61;20360;-56
2023/03/13 06:16:05;0.00;0.00;0.62;0.00;0.00;0.62;1.57;0.87;;;20.80;21.80;;;;;;2268066;61;20359;-51
2023/03/13 06:19:08;0.00;0.00;0.62;0.00;0.00;0.62;2.60;1.07;;;20.80;21.80;;;;;;2267096;61;20379;-52
2023/03/13 06:21:53;0.00;0.00;0.62;0.00;0.00;0.62;1.93;0.90;;;20.80;21.70;;;;;;2268364;61;20409;-52
2023/03/13 06:24:37;0.00;0.00;0.62;0.00;0.00;0.62;1.97;1.00;;;20.80;21.80;;;;;;2267725;61;20383;-56
2023/03/13 06:27:22;0.00;0.00;0.62;0.00;0.00;0.62;1.73;0.90;;;20.80;21.70;;;;;;2268262;61;20921;-53
2023/03/13 06:30:10;0.00;0.00;0.62;0.00;0.00;0.62;1.60;1.10;;;20.70;22.20;;;;;;2267862;61;20446;-50
2023/03/13 06:32:57;0.00;0.00;0.62;0.00;0.00;0.62;2.10;1.20;;;20.80;21.80;;;;;;2268183;61;20440;-50
2023/03/13 06:35:42;0.00;0.00;0.62;0.00;0.00;0.62;2.10;1.00;;;20.80;21.80;;;;;;2268583;61;20387;-53
2023/03/13 06:38:28;0.00;0.00;0.62;0.00;0.00;0.62;1.90;1.10;;;20.80;21.80;;;;;;2268220;61;20359;-55
2023/03/13 06:41:13;0.00;0.00;0.62;0.00;0.00;0.62;2.00;1.00;;;20.80;21.80;;;;;;2267583;61;20367;-53
2023/03/13 06:43:59;0.00;0.00;0.62;0.00;0.00;0.62;2.43;1.07;;;20.80;21.80;;;;;;2268051;61;20433;-52
2023/03/13 06:46:43;0.00;0.00;0.62;0.00;0.00;0.62;1.57;0.80;;;20.80;21.80;;;;;;2267991;61;20447;-50
2023/03/13 06:49:29;0.00;0.00;0.62;0.00;0.00;0.62;1.90;1.13;;;20.80;21.80;;;;;;2268028;61;20829;-51
2023/03/13 06:52:14;0.00;0.00;0.62;0.00;0.00;0.62;1.60;1.00;;;20.80;21.80;;;;;;2268200;61;20367;-52
2023/03/13 06:54:59;0.00;0.00;0.62;0.00;0.00;0.62;1.80;1.00;;;20.80;21.80;;;;;;2267931;61;20466;-56
2023/03/13 06:57:49;0.00;0.00;0.62;0.00;0.00;0.62;1.53;0.80;;;20.80;21.80;;;;;;2268227;61;20359;-49
2023/03/13 07:00:33;0.00;0.00;0.62;0.00;0.00;0.62;2.17;1.17;;;20.80;21.80;;;;;;2267904;61;20792;-52
2023/03/13 07:03:18;0.00;0.00;0.62;0.00;0.00;0.62;2.17;1.20;;;20.80;21.80;;;;;;2267271;61;20363;-51
2023/03/13 07:06:05;0.00;0.00;0.62;0.00;0.00;0.62;1.90;0.90;;;20.80;21.80;;;;;;2267775;61;20425;-54
2023/03/13 07:08:50;0.00;0.00;0.62;0.00;0.00;0.62;1.63;0.97;;;20.70;21.80;;;;;;2267919;61;20395;-60
2023/03/13 07:11:34;0.00;0.00;0.62;0.00;0.00;0.62;1.90;1.27;;;20.80;21.80;;;;;;2267917;61;20405;-50
2023/03/13 07:14:19;0.00;0.00;0.62;0.00;0.00;0.62;1.77;1.00;;;20.80;21.80;;;;;;2268269;61;20379;-50
2023/03/13 07:17:04;0.00;0.00;0.62;0.00;0.00;0.62;2.40;0.90;;;20.80;21.80;;;;;;2268161;61;20359;-54
2023/03/13 07:19:48;0.00;0.00;0.62;0.00;0.00;0.62;2.30;1.40;;;20.80;21.80;;;;;;2267610;61;20824;-56
2023/03/13 07:22:34;0.00;0.00;0.62;0.00;0.00;0.62;2.30;1.20;;;20.80;21.80;;;;;;2268148;61;20868;-49
2023/03/13 07:25:19;0.00;0.00;0.62;0.00;0.00;0.62;1.73;0.90;;;20.80;21.80;;;;;;2267143;61;20391;-50
2023/03/13 07:28:04;0.00;0.00;0.62;0.00;0.00;0.62;1.90;0.90;;;20.80;21.80;;;;;;2267835;61;20443;-52
2023/03/13 07:30:48;0.00;0.00;0.62;0.00;0.00;0.62;2.00;1.07;;;20.80;21.80;;;;;;2267615;61;20359;-54
2023/03/13 07:33:34;0.00;0.00;0.62;0.00;0.00;0.62;1.40;0.80;;;20.80;21.80;;;;;;2267948;61;20355;-49
2023/03/13 07:36:19;0.00;0.00;0.62;0.00;0.00;0.62;1.70;0.93;;;20.80;21.80;;;;;;2268464;61;20394;-50
2023/03/13 07:39:05;0.00;0.00;0.62;0.00;0.00;0.62;1.40;0.80;;;20.80;21.80;;;;;;2268438;61;20448;-48
2023/03/13 07:41:49;0.00;0.00;0.62;0.00;0.00;0.62;1.87;1.00;;;20.80;21.90;;;;;;2268659;61;20375;-52
2023/03/13 07:44:35;0.00;0.00;0.62;0.00;0.00;0.62;1.63;0.80;;;20.80;21.90;;;;;;2268664;61;20415;-56
2023/03/13 07:47:20;0.00;0.00;0.62;0.00;0.00;0.62;1.40;0.80;;;20.80;21.80;;;;;;2268300;61;20358;-53
2023/03/13 07:50:06;0.00;0.00;0.62;0.00;0.00;0.62;2.40;1.10;;;20.80;21.90;;;;;;2268709;61;20374;-53
2023/03/13 07:52:50;0.00;0.00;0.62;0.00;0.00;0.62;1.97;1.03;;;20.80;21.90;;;;;;2269041;61;20481;-52
2023/03/13 07:55:37;0.00;0.00;0.62;0.00;0.00;0.62;1.63;0.97;;;20.80;21.90;;;;;;2268505;61;20383;-51
2023/03/13 07:58:23;0.00;0.00;0.62;0.00;0.00;0.62;1.87;0.90;;;20.80;21.90;;;;;;2269011;61;20427;-50
2023/03/13 08:01:09;0.00;0.00;0.62;0.00;0.00;0.62;2.00;1.30;;;20.80;21.90;;;;;;2268464;61;20367;-49
2023/03/13 08:03:55;0.00;0.00;0.62;0.00;0.00;0.62;1.97;1.03;;;20.80;21.90;;;;;;2268482;61;20375;-49
2023/03/13 08:06:40;0.00;0.00;0.62;0.00;0.00;0.62;2.30;1.10;;;20.80;21.90;;;;;;2268940;61;20381;-54
2023/03/13 08:09:25;0.00;0.00;0.62;0.00;0.00;0.62;1.90;1.33;;;20.80;22.00;;;;;;2267893;61;20774;-55
2023/03/13 08:12:11;0.00;0.00;0.62;0.00;0.00;0.62;1.60;1.10;;;20.80;21.90;;;;;;2269024;61;20363;-53
2023/03/13 08:14:56;0.00;0.00;0.62;0.00;0.00;0.62;1.77;0.97;;;20.80;22.00;;;;;;2268580;61;20375;-53
2023/03/13 08:17:41;0.00;0.00;0.62;0.00;0.00;0.62;1.63;0.90;;;20.80;22.00;;;;;;2268274;61;20377;-51
2023/03/13 08:20:25;0.00;0.00;0.62;0.00;0.00;0.62;2.40;1.23;;;20.90;22.00;;;;;;2267918;61;20500;-50
2023/03/13 08:23:10;0.00;0.00;0.62;0.00;0.00;0.62;1.67;1.10;;;20.90;22.00;;;;;;2268430;61;20915;-53
2023/03/13 08:25:54;0.00;0.00;0.62;0.00;0.00;0.62;2.10;1.00;;;20.80;22.00;;;;;;2268365;61;20961;-51
2023/03/13 08:28:42;0.00;0.00;0.62;0.00;0.00;0.62;2.23;1.40;;;20.90;22.10;;;;;;2268993;61;20448;-55
2023/03/13 08:31:29;0.00;0.00;0.62;0.00;0.00;0.62;3.20;1.23;;;20.90;22.10;;;;;;2268573;61;20464;-54
2023/03/13 08:34:15;0.00;0.00;0.62;0.00;0.00;0.62;1.70;0.93;;;20.90;22.10;;;;;;2268749;61;20790;-56
2023/03/13 08:37:00;0.00;0.00;0.62;0.00;0.00;0.62;1.67;1.07;;;20.90;22.10;;;;;;2268576;61;20397;-56
2023/03/13 08:39:47;0.00;0.00;0.62;0.00;0.00;0.62;1.53;1.00;;;20.90;22.10;;;;;;2267783;61;20418;-51
2023/03/13 08:42:32;0.00;0.00;0.62;0.00;0.00;0.62;1.93;1.00;;;20.80;22.00;;;;;;2268607;61;20390;-59
2023/03/13 08:45:18;0.00;0.00;0.62;0.00;0.00;0.62;1.80;1.07;;;20.90;22.10;;;;;;2268134;61;20422;-53
2023/03/13 08:48:03;0.00;0.00;0.62;0.00;0.00;0.62;2.17;1.10;;;20.90;22.10;;;;;;2268554;61;20367;-54
2023/03/13 08:51:01;0.00;0.00;0.62;0.00;0.00;0.62;2.17;1.00;;;20.90;22.20;;;;;;2267839;61;20358;-51
2023/03/13 08:53:47;0.00;0.00;0.62;0.00;0.00;0.62;2.00;1.30;;;20.90;22.20;;;;;;2267885;61;20923;-56
2023/03/13 08:56:32;0.00;0.00;0.62;0.00;0.00;0.62;1.87;1.17;;;20.90;22.20;;;;;;2268740;61;20488;-57
2023/03/13 08:59:17;0.00;0.00;0.62;0.00;0.00;0.62;2.20;1.77;;;20.90;22.20;;;;;;2268263;61;20378;-51
2023/03/13 09:02:03;0.00;0.00;0.62;0.00;0.00;0.62;1.70;1.00;;;20.90;22.20;;;;;;2268407;61;20359;-54
2023/03/13 09:04:48;0.00;0.00;0.62;0.00;0.00;0.62;2.00;1.57;;;20.90;22.20;;;;;;2268383;61;20406;-52
2023/03/13 09:07:33;0.00;0.00;0.62;0.00;0.00;0.62;2.17;1.30;;;20.90;22.20;;;;;;2268398;61;20444;-53
2023/03/13 09:10:18;0.00;0.00;0.62;0.00;0.00;0.62;2.33;1.37;;;20.90;22.20;;;;;;2267918;61;20351;-56
2023/03/13 09:13:02;0.00;0.00;0.62;0.00;0.00;0.62;2.10;1.20;;;20.90;22.30;;;;;;2268705;61;20825;-51
2023/03/13 09:15:54;0.00;0.00;0.62;0.00;0.00;0.62;2.40;1.60;;;20.90;22.30;;;;;;2268227;61;20460;-51
2023/03/13 09:18:40;0.00;0.00;0.62;0.00;0.00;0.62;2.00;1.43;;;20.90;22.30;;;;;;2268654;61;20517;-50
2023/03/13 09:21:28;0.00;0.00;0.62;0.00;0.00;0.62;3.10;1.47;;;20.90;22.30;;;;;;2269004;61;20753;-50
2023/03/13 09:24:12;0.00;0.00;0.62;0.00;0.00;0.62;3.50;1.43;;;20.90;22.30;;;;;;2268106;61;20823;-51
2023/03/13 09:26:57;0.00;0.00;0.62;0.00;0.00;0.62;2.10;1.30;;;20.90;22.30;;;;;;2268481;61;20363;-52
2023/03/13 09:29:41;0.00;0.00;0.62;0.00;0.00;0.62;2.67;1.70;;;20.90;22.30;;;;;;2268007;61;20355;-56
2023/03/13 09:32:26;0.00;0.00;0.62;0.00;0.00;0.62;2.47;1.60;;;20.90;22.30;;;;;;2268184;61;20410;-52
2023/03/13 09:35:12;0.00;0.00;0.62;0.00;0.00;0.62;2.30;1.60;;;20.90;22.30;;;;;;2268498;61;20428;-53
2023/03/13 09:37:56;0.00;0.00;0.62;0.00;0.00;0.62;2.20;1.60;;;20.90;22.30;;;;;;2268281;61;20860;-52
2023/03/13 09:40:45;0.00;0.00;0.62;0.00;0.00;0.62;2.57;1.90;;;21.00;22.40;;;;;;2267557;61;20577;-54
2023/03/13 09:43:42;0.00;0.00;0.62;0.00;0.00;0.62;3.10;1.70;;;21.00;22.40;;;;;;2268427;61;20355;-50
2023/03/13 09:46:36;0.00;0.00;0.62;0.00;0.00;0.62;2.70;2.00;;;21.00;22.40;;;;;;2267464;61;20413;-52
2023/03/13 09:49:30;0.00;0.00;0.62;0.00;0.00;0.62;2.23;1.40;;;21.00;22.40;;;;;;2268166;61;20351;-53
2023/03/13 09:52:27;0.00;0.00;0.62;0.00;0.00;0.62;2.40;1.60;;;21.00;22.40;;;;;;2268268;61;20413;-51
2023/03/13 09:55:20;0.00;0.00;0.62;0.00;0.00;0.62;3.03;1.70;;;21.00;22.50;;;;;;2268236;61;20379;-54
2023/03/13 09:58:15;0.00;0.00;0.62;0.00;0.00;0.62;2.47;1.50;;;21.00;22.50;;;;;;2268458;61;20945;-49
2023/03/13 10:01:04;0.00;0.00;0.62;0.00;0.00;0.62;2.90;1.57;;;21.00;22.50;;;;;;2267335;61;20383;-53
2023/03/13 10:04:04;0.00;0.00;0.62;0.00;0.00;0.62;2.10;1.73;;;21.00;22.50;;;;;;2268490;61;20409;-51
2023/03/13 10:06:48;0.00;0.00;0.62;0.00;0.00;0.62;2.37;1.47;;;21.00;22.50;;;;;;2267865;61;20409;-50
2023/03/13 10:09:36;0.00;0.00;0.62;0.00;0.00;0.62;2.90;1.90;;;21.00;22.50;;;;;;2267904;61;20355;-53
2023/03/13 10:12:26;0.00;0.00;0.62;0.00;0.00;0.62;3.03;1.60;;;21.00;22.50;;;;;;2268481;61;20497;-50
2023/03/13 10:15:33;0.00;0.00;0.62;0.00;0.00;0.62;3.00;1.97;;;21.00;22.50;;;;;;2267150;61;20429;-58
2023/03/13 10:18:21;0.00;0.00;0.62;0.00;0.00;0.62;2.67;1.77;;;21.00;22.50;;;;;;2268061;61;20436;-52
2023/03/13 10:21:16;0.00;0.00;0.62;0.00;0.00;0.62;2.30;1.50;;;21.00;22.50;;;;;;2267930;61;20387;-53
2023/03/13 10:24:11;0.00;0.00;0.62;0.00;0.00;0.62;2.80;2.00;;;21.00;22.50;;;;;;2268156;61;20509;-51
2023/03/13 10:26:57;0.00;0.00;0.62;0.00;0.00;0.62;2.20;1.43;;;21.00;22.50;;;;;;2269079;61;20638;-54
2023/03/13 10:29:42;0.00;0.00;0.62;0.00;0.00;0.62;2.00;1.47;;;21.00;22.50;;;;;;2267311;61;20359;-54
2023/03/13 10:32:27;0.00;0.00;0.62;0.00;0.00;0.62;2.23;1.77;;;21.00;22.50;;;;;;2268553;61;20410;-56
2023/03/13 10:35:20;0.00;0.00;0.62;0.00;0.00;0.62;2.27;1.50;;;21.10;22.60;;;;;;2268504;61;20378;-53
2023/03/13 10:38:11;0.00;0.00;0.62;0.00;0.00;0.62;2.40;1.80;;;21.10;22.70;;;;;;2268229;61;20391;-54
2023/03/13 10:40:58;0.00;0.00;0.62;0.00;0.00;0.62;2.60;1.83;;;21.10;22.70;;;;;;2268158;61;20422;-52
2023/03/13 10:43:51;0.00;0.00;0.62;0.00;0.00;0.62;2.40;1.77;;;21.10;22.70;;;;;;2267829;61;20359;-55
2023/03/13 10:46:41;0.00;0.00;0.62;0.00;0.00;0.62;3.20;1.97;;;21.10;22.70;;;;;;2267979;61;20903;-50
2023/03/13 10:49:27;0.00;0.00;0.62;0.00;0.00;0.62;2.93;2.07;;;21.10;22.70;;;;;;2268163;61;20414;-52
2023/03/13 10:52:28;0.00;0.00;0.62;0.00;0.00;0.62;3.17;2.53;;;21.10;22.70;;;;;;2267674;61;20366;-53
2023/03/13 10:55:18;0.00;0.00;0.62;0.00;0.00;0.62;2.47;1.70;;;21.10;22.80;;;;;;2268290;61;20876;-50
2023/03/13 10:58:05;0.00;0.00;0.62;0.00;0.00;0.62;2.23;1.60;;;21.20;22.90;;;;;;2268111;61;20360;-55
2023/03/13 11:00:51;0.00;0.00;0.62;0.00;0.00;0.62;2.80;1.80;;;21.10;22.80;;;;;;2267776;61;20981;-53
2023/03/13 11:03:36;0.00;0.00;0.62;0.00;0.00;0.62;2.57;1.87;;;21.20;22.90;;;;;;2268199;61;20661;-54
2023/03/13 11:06:29;0.00;0.00;0.62;0.00;0.00;0.62;2.90;1.90;;;21.20;22.90;;;;;;2267962;61;20405;-53